Pagrindinis puslapis
METAR-TAF:

METAR-TAF

Oro uostai :

Çardak, Turkija

platuma: 37-47N, ilguma: 029-42E, Aukštis: 849 m

Dabartinis oras

Ataskaita buvo paskelbta 1 valandą ir 4 minutes, ne 05:50 UTC
Ramus vėjas
Temperatūra 19°C
Drėgmė 37%
Slėgis 1016 hPa
Matomumas 10 km arba daugiau
nėra debesų žemiau 1500 m ir nėra kamuolinių lietaus debesų

METAR: LTAY 140550Z 00000KT CAVOK 19/04 Q1016

Laikas: 09:54 (06:54 UTC)

Prognozė

Ataskaita buvo paskelbta 2 valandos ir 14 minutes, ne 04:40 UTC
Prognozė galioja nuo 14 metu 06 UTC su 14 metu 15 UTC
Vėjas 2 kt nuo kintamojo kryptimis
Matomumas 10 km arba daugiau
nėra debesų žemiau 1500 m ir nėra kamuolinių lietaus debesų
Tapsmas
nuo 14 metu 06 UTC su 14 metu 09 UTC
Vėjas 17 kt iš Vakarų/Šiaurės Vakarų su gūsio iki 32 kt

TAF: LTAY 140440Z 1406/1415 VRB02KT CAVOK BECMG 1406/1409 29017G32KT

Orai ataskaitas ir orų prognozės (METAR, TAF).

turimą stotys yra geltonos ir raudonos taškus žemėlapyje.

Perkelti pele per norėdami pamatyti stoties vardą.

Tada spustelėkite, norėdami matyti oro stebėjimo ir prognozės.

Norėdami pakeisti žemėlapį: spustelėkite ant žalios mygtukų su juodo kryžiaus žemyn,; žalią mygtuką su brūkšneliu, jei norite nutolinti; arba žalių rodyklių gretimoms žemėlapius.


METAR-TAF: